LTAG/ADF METAR and TAF weather

Enter ICAO airport designator
Station Type Date Time Source
LTAG METAR 2020/01/19 00:20 UTC NOAA

LTAG 190020Z 03004KT CAVOK 08/M02 Q1014 NOSIG


Station Type Date Time Source
LTAG Decoded METAR 2020/01/19 00:20 UTC NOAA

Adana / Incirlik, Turkey (LTAG) 37-00N 035-25E 66M
Jan 18, 2020 - 07:20 PM EST / 2020.01.19 0020 UTC
Wind: from the NNE (030 degrees) at 5 MPH (4 KT):0
Visibility: greater than 7 mile(s):0
Temperature: 46 F (8 C)
Dew Point: 28 F (-2 C)
Relative Humidity: 49%
Pressure (altimeter): 29.94 in. Hg (1014 hPa)
ob: LTAG 190020Z 03004KT CAVOK 08/M02 Q1014 NOSIG
cycle: 0

Station Type Date Time Source
LTAG TAF 2020/01/18 18:03 UTC NOAA

TAF TAF LTAG 181640Z 1818/1918 VRB02KT CAVOK
BECMG 1902/1906 SCT040 BKN100

Example: see airport list